Salonica, Greece
Current Conditions -  °F | °C
As of 1:20 PM on Thursday 27 Nov 2014 (Local Time) from LGTS Reporting Station
Drizzle Drizzle  
Wind Chill: 48°   Ceiling: 2500
Heat Index: 48°   Visibility: 4mi
Dew Point: 43°   Wind: 3mph
Humidity: 82%   Direction: 340°NNW
Pressure: 30.18"   Gusts: NA
Location:  40.52°N, 22.97°E
Report Text: LGTS 271020Z 34003KT 6000 -DZ FEW010 BKN025 OVC070 09/06 Q1022 NOSIG
Loading
Personal Weather Stations






























Interactive Weather Map New forecast layout! Learn more

10-Day Weather Forecast

Advertisements
Track Severe Weather on mobile